Time;durP1;ratioP1;P1;durP2;ratioP2;P2;SDS_P1;SDS_P2;PMS_P1;PMS_P2;Temp;Humidity;BMP_temperature;BMP_pressure;BME280_temperature;BME280_humidity;BME280_pressure;Samples;Min_cycle;Max_cycle;Signal;HPM_P1;HPM_P2
2022/06/03 00:02:03;;;;;;;0.70;0.70;;;;;;;;;;1765163;79;26287;-51
2022/06/03 00:04:49;;;;;;;0.80;0.80;;;;;;;;;;1770287;79;26368;-54
2022/06/03 00:07:26;;;;;;;0.80;0.80;;;;;;;;;;1767405;79;26360;-50
2022/06/03 00:09:55;;;;;;;0.80;0.80;;;;;;;;;;1768468;79;26354;-56
2022/06/03 00:12:27;;;;;;;0.60;0.60;;;;;;;;;;1755711;80;26384;-49
2022/06/03 00:14:58;;;;;;;0.72;0.70;;;;;;;;;;1764120;79;26330;-50
2022/06/03 00:17:42;;;;;;;0.70;0.70;;;;;;;;;;1764833;79;26757;-51
2022/06/03 00:20:14;;;;;;;0.80;0.80;;;;;;;;;;1760024;79;26388;-54
2022/06/03 00:22:52;;;;;;;0.70;0.70;;;;;;;;;;1766865;79;26749;-55
2022/06/03 00:25:23;;;;;;;0.60;0.60;;;;;;;;;;1771904;79;26370;-53
2022/06/03 00:28:01;;;;;;;0.70;0.70;;;;;;;;;;1761561;80;25728;-50
2022/06/03 00:30:33;;;;;;;0.80;0.80;;;;;;;;;;1774339;79;26307;-48
2022/06/03 00:33:20;;;;;;;0.70;0.70;;;;;;;;;;1767672;79;26389;-51
2022/06/03 00:36:01;;;;;;;0.72;0.72;;;;;;;;;;1787282;80;26303;-52
2022/06/03 00:38:33;;;;;;;0.78;0.78;;;;;;;;;;1765682;80;26283;-52
2022/06/03 00:41:04;;;;;;;0.70;0.70;;;;;;;;;;1791606;78;26329;-51
2022/06/03 00:43:49;;;;;;;0.80;0.80;;;;;;;;;;1779320;78;26639;-54
2022/06/03 00:46:23;;;;;;;0.68;0.68;;;;;;;;;;1796264;78;26778;-54
2022/06/03 00:48:58;;;;;;;0.93;0.88;;;;;;;;;;1793778;78;26290;-53
2022/06/03 00:51:36;;;;;;;0.80;0.80;;;;;;;;;;1773276;78;26304;-53
2022/06/03 00:54:17;;;;;;;0.70;0.70;;;;;;;;;;1794876;78;26302;-51
2022/06/03 00:56:48;;;;;;;0.80;0.80;;;;;;;;;;1803993;78;26822;-52
2022/06/03 00:59:20;;;;;;;0.70;0.70;;;;;;;;;;1797439;78;26454;-52
2022/06/03 01:01:54;;;;;;;0.70;0.70;;;;;;;;;;1790902;78;26277;-52
2022/06/03 01:04:41;;;;;;;0.70;0.70;;;;;;;;;;1787319;78;26337;-53
2022/06/03 01:07:10;;;;;;;2.75;0.78;;;;;;;;;;1792956;78;26369;-53
2022/06/03 01:09:45;;;;;;;0.90;0.90;;;;;;;;;;1796661;78;26343;-55
2022/06/03 01:12:17;;;;;;;0.70;0.70;;;;;;;;;;1798816;78;26278;-51
2022/06/03 01:14:52;;;;;;;0.70;0.70;;;;;;;;;;1797248;78;26725;-50
2022/06/03 01:17:27;;;;;;;0.70;0.70;;;;;;;;;;1818495;78;26311;-55
2022/06/03 01:20:05;;;;;;;0.70;0.70;;;;;;;;;;1791043;78;26858;-52
2022/06/03 01:22:52;;;;;;;0.70;0.70;;;;;;;;;;1796630;78;26783;-51
2022/06/03 01:25:23;;;;;;;0.70;0.70;;;;;;;;;;1799230;78;26714;-53
2022/06/03 01:27:52;;;;;;;0.72;0.72;;;;;;;;;;1783960;78;26353;-54
2022/06/03 01:30:21;;;;;;;0.60;0.60;;;;;;;;;;1795138;78;26269;-51
2022/06/03 01:32:59;;;;;;;1.12;0.80;;;;;;;;;;1799080;78;26337;-51
2022/06/03 01:35:40;;;;;;;0.80;0.80;;;;;;;;;;1812299;78;26571;-48
2022/06/03 01:38:27;;;;;;;0.75;0.70;;;;;;;;;;1796678;78;26222;-54
2022/06/03 01:40:56;;;;;;;1.57;0.70;;;;;;;;;;1794255;78;26373;-53
2022/06/03 01:43:39;;;;;;;0.68;0.68;;;;;;;;;;1811771;77;26307;-48
2022/06/03 01:46:24;;;;;;;0.70;0.70;;;;;;;;;;1808001;77;26919;-54
2022/06/03 01:49:00;;;;;;;0.60;0.60;;;;;;;;;;1801717;78;26667;-51
2022/06/03 01:51:32;;;;;;;0.80;0.80;;;;;;;;;;1809511;77;26342;-51
2022/06/03 01:54:00;;;;;;;0.62;0.62;;;;;;;;;;1811928;78;26675;-54
2022/06/03 01:56:41;;;;;;;0.62;0.62;;;;;;;;;;1807448;78;26278;-51
2022/06/03 01:59:25;;;;;;;0.57;0.57;;;;;;;;;;1812767;78;26290;-55
2022/06/03 02:02:12;;;;;;;0.70;0.70;;;;;;;;;;1823264;77;26300;-53
2022/06/03 02:04:59;;;;;;;0.70;0.70;;;;;;;;;;1813035;78;26297;-51
2022/06/03 02:07:37;;;;;;;0.60;0.60;;;;;;;;;;1812982;77;26239;-54
2022/06/03 02:10:15;;;;;;;0.65;0.65;;;;;;;;;;1810150;78;26400;-50
2022/06/03 02:12:43;;;;;;;0.70;0.70;;;;;;;;;;1810967;78;26738;-54
2022/06/03 02:15:15;;;;;;;0.60;0.60;;;;;;;;;;1812312;78;26792;-52
2022/06/03 02:17:47;;;;;;;0.70;0.70;;;;;;;;;;1811213;78;26261;-54
2022/06/03 02:20:16;;;;;;;0.55;0.55;;;;;;;;;;1810368;78;26274;-54
2022/06/03 02:22:47;;;;;;;0.60;0.60;;;;;;;;;;1809648;78;26278;-52
2022/06/03 02:25:33;;;;;;;0.60;0.60;;;;;;;;;;1808122;79;26294;-53
2022/06/03 02:28:10;;;;;;;0.68;0.68;;;;;;;;;;1811738;78;26736;-54
2022/06/03 02:30:39;;;;;;;0.53;0.53;;;;;;;;;;1835350;77;26785;-50
2022/06/03 02:33:08;;;;;;;0.60;0.60;;;;;;;;;;1810154;77;26767;-51
2022/06/03 02:35:43;;;;;;;0.70;0.70;;;;;;;;;;1802566;77;26296;-53
2022/06/03 02:38:17;;;;;;;0.70;0.70;;;;;;;;;;1829719;77;26345;-54
2022/06/03 02:40:58;;;;;;;0.70;0.70;;;;;;;;;;1812212;77;26265;-52
2022/06/03 02:43:27;;;;;;;0.60;0.60;;;;;;;;;;1799658;78;26392;-50
2022/06/03 02:46:13;;;;;;;0.60;0.60;;;;;;;;;;1799411;78;26294;-53
2022/06/03 02:48:41;;;;;;;0.50;0.50;;;;;;;;;;1802410;78;26310;-52
2022/06/03 02:51:10;;;;;;;0.60;0.60;;;;;;;;;;1795170;78;26314;-52
2022/06/03 02:53:42;;;;;;;0.55;0.55;;;;;;;;;;1805295;78;26737;-53
2022/06/03 02:56:29;;;;;;;0.60;0.60;;;;;;;;;;1805599;78;26259;-52
2022/06/03 02:59:13;;;;;;;0.57;0.57;;;;;;;;;;1795582;78;26278;-51
2022/06/03 03:01:51;;;;;;;0.60;0.60;;;;;;;;;;1797197;78;26342;-52
2022/06/03 03:04:22;;;;;;;0.60;0.60;;;;;;;;;;1795092;78;26279;-54
2022/06/03 03:07:09;;;;;;;0.75;0.60;;;;;;;;;;1800253;78;26352;-54
2022/06/03 03:09:38;;;;;;;0.62;0.62;;;;;;;;;;1804079;78;26315;-50
2022/06/03 03:12:25;;;;;;;0.62;0.62;;;;;;;;;;1797624;78;26332;-52
2022/06/03 03:14:56;;;;;;;0.70;0.70;;;;;;;;;;1798540;78;26287;-48
2022/06/03 03:17:28;;;;;;;0.65;0.65;;;;;;;;;;1823066;78;26276;-52
2022/06/03 03:20:06;;;;;;;0.70;0.70;;;;;;;;;;1799024;78;26283;-55
2022/06/03 03:22:50;;;;;;;1.95;0.75;;;;;;;;;;1797611;78;26326;-49
2022/06/03 03:25:19;;;;;;;0.55;0.55;;;;;;;;;;1696751;81;26306;-53
2022/06/03 03:27:51;;;;;;;0.60;0.60;;;;;;;;;;1762777;78;26303;-50
2022/06/03 03:30:38;;;;;;;0.60;0.60;;;;;;;;;;1790383;78;26287;-54
2022/06/03 03:33:25;;;;;;;0.60;0.60;;;;;;;;;;1782059;78;26963;-53
2022/06/03 03:35:57;;;;;;;0.60;0.60;;;;;;;;;;1797528;78;26334;-50
2022/06/03 03:38:42;;;;;;;0.70;0.70;;;;;;;;;;1801648;78;26742;-51
2022/06/03 03:41:20;;;;;;;0.80;0.80;;;;;;;;;;1796738;78;26227;-53
2022/06/03 03:43:48;;;;;;;0.70;0.70;;;;;;;;;;1800687;78;26447;-50
2022/06/03 03:46:17;;;;;;;0.62;0.62;;;;;;;;;;1813337;77;26294;-52
2022/06/03 03:48:52;;;;;;;0.60;0.60;;;;;;;;;;1808435;78;26369;-55
2022/06/03 03:51:21;;;;;;;0.60;0.60;;;;;;;;;;1810949;77;26286;-52
2022/06/03 03:53:49;;;;;;;0.70;0.70;;;;;;;;;;1812556;78;26353;-54
2022/06/03 03:56:18;;;;;;;1.02;0.70;;;;;;;;;;1805119;78;26296;-54
2022/06/03 03:59:02;;;;;;;0.70;0.70;;;;;;;;;;1798015;78;26305;-50
2022/06/03 04:01:43;;;;;;;0.75;0.75;;;;;;;;;;1807785;77;26332;-50
2022/06/03 04:04:18;;;;;;;0.70;0.70;;;;;;;;;;1811266;78;26337;-55
2022/06/03 04:07:03;;;;;;;0.70;0.70;;;;;;;;;;1812467;77;26683;-52
2022/06/03 04:09:50;;;;;;;0.72;0.72;;;;;;;;;;1814151;77;26436;-52
2022/06/03 04:12:35;;;;;;;0.60;0.60;;;;;;;;;;1811029;77;26329;-55
2022/06/03 04:15:22;;;;;;;0.78;0.70;;;;;;;;;;1808150;78;26801;-53
2022/06/03 04:18:08;;;;;;;0.82;0.82;;;;;;;;;;1811275;77;26282;-52
2022/06/03 04:20:48;;;;;;;0.88;0.88;;;;;;;;;;1810642;78;26283;-53
2022/06/03 04:23:20;;;;;;;0.70;0.70;;;;;;;;;;1810387;77;26397;-52
2022/06/03 04:25:58;;;;;;;0.80;0.80;;;;;;;;;;1810300;78;26708;-55
2022/06/03 04:28:30;;;;;;;0.80;0.80;;;;;;;;;;1808263;77;26765;-53
2022/06/03 04:30:59;;;;;;;0.80;0.80;;;;;;;;;;1806635;78;26679;-55
2022/06/03 04:33:28;;;;;;;0.80;0.80;;;;;;;;;;1804773;77;26332;-50
2022/06/03 04:36:02;;;;;;;0.70;0.70;;;;;;;;;;1812641;78;26279;-54
2022/06/03 04:38:46;;;;;;;0.80;0.80;;;;;;;;;;1824105;77;26348;-53
2022/06/03 04:41:27;;;;;;;0.72;0.72;;;;;;;;;;1814248;77;26353;-54
2022/06/03 04:43:56;;;;;;;0.80;0.80;;;;;;;;;;1815616;78;26374;-53
2022/06/03 04:46:30;;;;;;;0.90;0.90;;;;;;;;;;1796456;78;26272;-52
2022/06/03 04:49:16;;;;;;;0.90;0.90;;;;;;;;;;1795254;77;26742;-55
2022/06/03 04:51:51;;;;;;;0.72;0.72;;;;;;;;;;1799800;78;26286;-52
2022/06/03 04:54:36;;;;;;;1.30;0.80;;;;;;;;;;1810486;77;26392;-55
2022/06/03 04:57:08;;;;;;;0.80;0.80;;;;;;;;;;1797923;78;26231;-54
2022/06/03 04:59:36;;;;;;;1.00;1.00;;;;;;;;;;1798214;78;26726;-56
2022/06/03 05:02:08;;;;;;;1.00;1.00;;;;;;;;;;1799347;78;26797;-53
2022/06/03 05:04:40;;;;;;;0.90;0.90;;;;;;;;;;1797652;78;26274;-56
2022/06/03 05:07:25;;;;;;;1.75;0.90;;;;;;;;;;1806857;78;26282;-51
2022/06/03 05:09:57;;;;;;;0.90;0.90;;;;;;;;;;1798411;78;25808;-55
2022/06/03 05:12:26;;;;;;;1.05;1.05;;;;;;;;;;1797429;78;26287;-56
2022/06/03 05:15:10;;;;;;;0.98;0.98;;;;;;;;;;1807375;78;26282;-49
2022/06/03 05:17:38;;;;;;;1.00;1.00;;;;;;;;;;1804814;78;26805;-54
2022/06/03 05:20:07;;;;;;;1.00;1.00;;;;;;;;;;1799882;78;28090;-56
2022/06/03 05:22:42;;;;;;;1.80;1.10;;;;;;;;;;1787990;78;26596;-55
2022/06/03 05:25:29;;;;;;;1.12;1.00;;;;;;;;;;1802383;78;26278;-52
2022/06/03 05:28:01;;;;;;;1.02;1.00;;;;;;;;;;1794177;78;26292;-55
2022/06/03 05:30:39;;;;;;;1.00;1.00;;;;;;;;;;1799327;78;26286;-54
2022/06/03 05:33:24;;;;;;;1.45;1.07;;;;;;;;;;1805256;78;26270;-53
2022/06/03 05:36:02;;;;;;;0.95;0.95;;;;;;;;;;1797639;78;26325;-56
2022/06/03 05:38:33;;;;;;;0.95;0.95;;;;;;;;;;1817438;77;26725;-51
2022/06/03 05:41:02;;;;;;;1.15;0.80;;;;;;;;;;1798887;78;26291;-53
2022/06/03 05:43:31;;;;;;;1.12;1.10;;;;;;;;;;1778200;78;26316;-53
2022/06/03 05:46:03;;;;;;;1.10;1.10;;;;;;;;;;1795497;78;26268;-53
2022/06/03 05:48:31;;;;;;;1.20;1.20;;;;;;;;;;1797664;78;26770;-53
2022/06/03 05:51:00;;;;;;;1.05;1.05;;;;;;;;;;1798820;78;26806;-55
2022/06/03 05:53:38;;;;;;;2.05;1.10;;;;;;;;;;1796977;78;26303;-53
2022/06/03 05:56:21;;;;;;;1.05;1.05;;;;;;;;;;1799233;78;26835;-54
2022/06/03 05:58:52;;;;;;;1.10;1.05;;;;;;;;;;1794751;78;26363;-57
2022/06/03 06:01:37;;;;;;;1.10;1.10;;;;;;;;;;1800339;78;26353;-53
2022/06/03 06:04:09;;;;;;;1.10;1.10;;;;;;;;;;1800533;78;26329;-53
2022/06/03 06:06:38;;;;;;;1.00;1.00;;;;;;;;;;1802536;78;26731;-54
2022/06/03 06:09:09;;;;;;;1.15;1.15;;;;;;;;;;1800395;78;26303;-55
2022/06/03 06:11:47;;;;;;;1.10;1.10;;;;;;;;;;1798567;78;26337;-54
2022/06/03 06:14:22;;;;;;;1.35;1.35;;;;;;;;;;1802695;78;26278;-55
2022/06/03 06:16:49;;;;;;;1.20;1.20;;;;;;;;;;1815129;78;26283;-56
2022/06/03 06:19:24;;;;;;;1.20;1.20;;;;;;;;;;1815846;78;26282;-56
2022/06/03 06:21:53;;;;;;;1.20;1.20;;;;;;;;;;1802412;78;26647;-50
2022/06/03 06:24:37;;;;;;;1.30;1.20;;;;;;;;;;1797989;78;26282;-54
2022/06/03 06:27:09;;;;;;;1.40;1.40;;;;;;;;;;1796577;78;26282;-56
2022/06/03 06:29:54;;;;;;;1.40;1.40;;;;;;;;;;1799098;78;26337;-56
2022/06/03 06:32:23;;;;;;;1.72;1.50;;;;;;;;;;1808644;78;26641;-52
2022/06/03 06:34:52;;;;;;;1.70;1.30;;;;;;;;;;1799280;78;26292;-49
2022/06/03 06:37:37;;;;;;;1.60;1.50;;;;;;;;;;1805298;78;26284;-53
2022/06/03 06:40:18;;;;;;;1.47;1.47;;;;;;;;;;1809843;78;26333;-49
2022/06/03 06:42:51;;;;;;;1.75;1.65;;;;;;;;;;1795443;78;26219;-51
2022/06/03 06:45:23;;;;;;;1.60;1.50;;;;;;;;;;1804629;78;26411;-50
2022/06/03 06:48:03;;;;;;;1.40;1.40;;;;;;;;;;1779257;78;26280;-54
2022/06/03 06:50:35;;;;;;;1.40;1.40;;;;;;;;;;1786545;78;26834;-51
2022/06/03 06:53:04;;;;;;;1.47;1.47;;;;;;;;;;1798189;78;26305;-53
2022/06/03 06:55:51;;;;;;;1.30;1.30;;;;;;;;;;1792378;78;26280;-51
2022/06/03 06:58:25;;;;;;;1.50;1.50;;;;;;;;;;1795646;78;26373;-56
2022/06/03 07:00:54;;;;;;;1.90;1.80;;;;;;;;;;1779551;78;28350;-53
2022/06/03 07:03:40;;;;;;;1.42;1.42;;;;;;;;;;1798624;78;26270;-54
2022/06/03 07:06:21;;;;;;;1.45;1.45;;;;;;;;;;1792398;78;26685;-47
2022/06/03 07:08:59;;;;;;;1.35;1.35;;;;;;;;;;1801126;78;26313;-50
2022/06/03 07:11:28;;;;;;;3.47;1.37;;;;;;;;;;1797438;78;26336;-57
2022/06/03 07:14:00;;;;;;;1.50;1.50;;;;;;;;;;1798040;78;26271;-50
2022/06/03 07:22:08;;;;;;;1.70;1.60;;;;;;;;;;1790720;78;26965;-56
2022/06/03 07:24:40;;;;;;;1.60;1.60;;;;;;;;;;1794157;78;26356;-50
2022/06/03 07:27:09;;;;;;;1.42;1.42;;;;;;;;;;1792554;78;26589;-50
2022/06/03 07:29:43;;;;;;;1.62;1.52;;;;;;;;;;1803317;78;26269;-52
2022/06/03 07:32:18;;;;;;;1.60;1.60;;;;;;;;;;1798212;78;26353;-49
2022/06/03 07:34:53;;;;;;;1.60;1.60;;;;;;;;;;1798043;78;26282;-48
2022/06/03 07:37:25;;;;;;;1.50;1.50;;;;;;;;;;1791727;78;26401;-53
2022/06/03 07:39:59;;;;;;;1.60;1.60;;;;;;;;;;1799280;78;26368;-48
2022/06/03 07:42:45;;;;;;;1.62;1.60;;;;;;;;;;1792573;78;26341;-53
2022/06/03 07:45:19;;;;;;;1.62;1.60;;;;;;;;;;1797871;78;27657;-54
2022/06/03 07:47:47;;;;;;;1.60;1.60;;;;;;;;;;1791018;78;27402;-53
2022/06/03 07:50:16;;;;;;;1.90;1.80;;;;;;;;;;1806351;78;26352;-52
2022/06/03 07:52:48;;;;;;;1.40;1.40;;;;;;;;;;1808093;78;26317;-50
2022/06/03 07:55:17;;;;;;;1.60;1.60;;;;;;;;;;1795488;78;26264;-55
2022/06/03 07:57:51;;;;;;;2.05;1.67;;;;;;;;;;1807379;78;26349;-49
2022/06/03 08:00:20;;;;;;;1.75;1.65;;;;;;;;;;1796036;78;26320;-57
2022/06/03 08:02:49;;;;;;;1.42;1.42;;;;;;;;;;1806595;78;26307;-49
2022/06/03 08:05:18;;;;;;;1.47;1.47;;;;;;;;;;1797695;78;26279;-56
2022/06/03 08:13:19;;;;;;;1.52;1.52;;;;;;;;;;1799319;78;26347;-52
2022/06/03 08:15:51;;;;;;;1.35;1.35;;;;;;;;;;1800934;78;26311;-53
2022/06/03 08:18:19;;;;;;;1.55;1.55;;;;;;;;;;1803034;78;26783;-51
2022/06/03 08:20:48;;;;;;;1.75;1.75;;;;;;;;;;1800262;78;26271;-46
2022/06/03 08:23:17;;;;;;;1.55;1.55;;;;;;;;;;1801517;78;26325;-47
2022/06/03 08:25:46;;;;;;;1.70;1.70;;;;;;;;;;1799184;77;26401;-52
2022/06/03 08:28:15;;;;;;;1.70;1.60;;;;;;;;;;1795441;78;26362;-54
2022/06/03 08:30:44;;;;;;;1.92;1.82;;;;;;;;;;1800751;78;27315;-47
2022/06/03 08:33:13;;;;;;;1.85;1.75;;;;;;;;;;1800606;78;26299;-50
2022/06/03 08:35:41;;;;;;;1.60;1.60;;;;;;;;;;1799803;78;26306;-53
2022/06/03 08:38:13;;;;;;;1.65;1.65;;;;;;;;;;1801330;78;26339;-47
2022/06/03 08:41:00;;;;;;;1.50;1.40;;;;;;;;;;1797691;78;26805;-46
2022/06/03 08:43:31;;;;;;;2.17;1.90;;;;;;;;;;1799483;78;26341;-53
2022/06/03 08:46:03;;;;;;;1.72;1.72;;;;;;;;;;1791491;78;26318;-49
2022/06/03 08:48:32;;;;;;;2.15;1.80;;;;;;;;;;1801705;78;26301;-48
2022/06/03 08:51:07;;;;;;;1.72;1.70;;;;;;;;;;1791000;78;26334;-49
2022/06/03 08:53:38;;;;;;;1.85;1.80;;;;;;;;;;1794901;78;26353;-57
2022/06/03 08:56:07;;;;;;;2.10;2.00;;;;;;;;;;1800240;78;26718;-51
2022/06/03 08:58:36;;;;;;;2.17;2.05;;;;;;;;;;1798682;78;26724;-53
2022/06/03 09:01:14;;;;;;;1.90;1.80;;;;;;;;;;1804062;78;26290;-53
2022/06/03 09:03:52;;;;;;;1.90;1.90;;;;;;;;;;1800566;78;26785;-49
2022/06/03 09:06:30;;;;;;;2.17;2.08;;;;;;;;;;1798714;78;26279;-48
2022/06/03 09:08:59;;;;;;;2.08;1.98;;;;;;;;;;1801120;77;26326;-53
2022/06/03 09:11:28;;;;;;;2.20;2.10;;;;;;;;;;1803799;78;26286;-49
2022/06/03 09:14:03;;;;;;;2.00;1.90;;;;;;;;;;1798379;78;26365;-46
2022/06/03 09:16:31;;;;;;;2.33;2.22;;;;;;;;;;1798110;78;26766;-51
2022/06/03 09:19:19;;;;;;;1.87;1.85;;;;;;;;;;1791351;78;26284;-54
2022/06/03 09:21:51;;;;;;;2.00;1.90;;;;;;;;;;1800685;78;26306;-53
2022/06/03 09:24:18;;;;;;;2.25;2.15;;;;;;;;;;1805319;78;26297;-50
2022/06/03 09:26:47;;;;;;;2.50;2.30;;;;;;;;;;1796708;78;28443;-51
2022/06/03 09:29:15;;;;;;;2.27;2.17;;;;;;;;;;1796935;78;26286;-51
2022/06/03 09:31:47;;;;;;;2.60;2.40;;;;;;;;;;1803303;78;26276;-57
2022/06/03 09:34:16;;;;;;;2.02;2.02;;;;;;;;;;1807683;78;26282;-55
2022/06/03 09:36:43;;;;;;;2.37;2.20;;;;;;;;;;1803915;78;26755;-53
2022/06/03 09:39:12;;;;;;;2.15;2.05;;;;;;;;;;1818855;77;26372;-56
2022/06/03 09:41:44;;;;;;;2.10;2.00;;;;;;;;;;1797045;78;26295;-54
2022/06/03 09:44:13;;;;;;;3.33;2.10;;;;;;;;;;1803910;78;26722;-52
2022/06/03 09:46:41;;;;;;;2.40;2.30;;;;;;;;;;1816692;78;26327;-48
2022/06/03 09:49:09;;;;;;;2.20;2.10;;;;;;;;;;1795283;78;26239;-52
2022/06/03 09:52:07;;;;;;;2.27;2.17;;;;;;;;;;1801946;78;26302;-54
2022/06/03 09:54:32;;;;;;;2.98;2.30;;;;;;;;;;1799464;78;26369;-51
2022/06/03 09:57:01;;;;;;;2.12;2.02;;;;;;;;;;1799947;78;26295;-51
2022/06/03 09:59:29;;;;;;;2.30;2.20;;;;;;;;;;1762368;78;26280;-50
2022/06/03 10:01:57;;;;;;;2.22;2.12;;;;;;;;;;1812333;78;26390;-51
2022/06/03 10:04:24;;;;;;;2.47;2.30;;;;;;;;;;1803478;78;26329;-49
2022/06/03 10:06:53;;;;;;;2.30;2.20;;;;;;;;;;1801078;78;26911;-48
2022/06/03 10:17:39;;;;;;;2.42;2.33;;;;;;;;;;1791176;78;28380;-49
2022/06/03 10:20:08;;;;;;;2.10;2.00;;;;;;;;;;1801710;78;26297;-51
2022/06/03 10:22:36;;;;;;;2.05;1.90;;;;;;;;;;1801171;78;26279;-52
2022/06/03 10:25:03;;;;;;;2.10;2.00;;;;;;;;;;1801020;78;26838;-53
2022/06/03 10:27:31;;;;;;;2.22;2.12;;;;;;;;;;1802653;78;26308;-52
2022/06/03 10:29:59;;;;;;;2.02;2.02;;;;;;;;;;1799007;78;26348;-49
2022/06/03 10:32:27;;;;;;;1.85;1.85;;;;;;;;;;1798378;78;26976;-53
2022/06/03 10:34:59;;;;;;;2.10;2.00;;;;;;;;;;1809232;78;26327;-51
2022/06/03 10:37:26;;;;;;;1.70;1.70;;;;;;;;;;1786084;77;26316;-54
2022/06/03 10:39:55;;;;;;;2.10;2.00;;;;;;;;;;1799147;78;26313;-55
2022/06/03 10:42:24;;;;;;;1.87;1.85;;;;;;;;;;1816214;78;26585;-48
2022/06/03 10:44:52;;;;;;;3.60;2.10;;;;;;;;;;1794810;78;28464;-47
2022/06/03 10:47:20;;;;;;;2.00;1.90;;;;;;;;;;1811012;77;26472;-46
2022/06/03 10:49:52;;;;;;;2.12;2.02;;;;;;;;;;1786401;78;28358;-51
2022/06/03 11:03:33;;;;;;;1.95;1.80;;;;;;;;;;1796640;78;26321;-54
2022/06/03 11:06:08;;;;;;;1.90;1.80;;;;;;;;;;1798826;78;26323;-52
2022/06/03 11:08:54;;;;;;;1.95;1.85;;;;;;;;;;1799219;78;27339;-56
2022/06/03 11:11:32;;;;;;;1.60;1.60;;;;;;;;;;1794106;78;26360;-55
2022/06/03 11:14:01;;;;;;;2.10;2.00;;;;;;;;;;1793058;78;26383;-54
2022/06/03 11:16:28;;;;;;;1.72;1.72;;;;;;;;;;1796799;78;26739;-55
2022/06/03 11:18:57;;;;;;;2.62;1.90;;;;;;;;;;1805042;78;26774;-55
2022/06/03 11:21:29;;;;;;;1.80;1.80;;;;;;;;;;1794552;78;26755;-56
2022/06/03 11:24:00;;;;;;;2.00;1.90;;;;;;;;;;1801219;78;26322;-56
2022/06/03 11:26:29;;;;;;;1.82;1.82;;;;;;;;;;1792733;78;26758;-56
2022/06/03 11:28:57;;;;;;;1.90;1.80;;;;;;;;;;1795396;78;26972;-56
2022/06/03 11:31:29;;;;;;;1.90;1.80;;;;;;;;;;1787262;78;26772;-54
2022/06/03 11:33:58;;;;;;;1.92;1.80;;;;;;;;;;1791942;78;26327;-55
2022/06/03 11:36:39;;;;;;;2.00;1.90;;;;;;;;;;1799799;78;26291;-53
2022/06/03 11:39:24;;;;;;;1.80;1.70;;;;;;;;;;1794675;77;26227;-55
2022/06/03 11:41:53;;;;;;;1.90;1.80;;;;;;;;;;1796505;78;26229;-56
2022/06/03 11:44:22;;;;;;;1.82;1.72;;;;;;;;;;1790374;78;26286;-47
2022/06/03 11:46:51;;;;;;;1.67;1.67;;;;;;;;;;1807542;78;26349;-47
2022/06/03 11:49:20;;;;;;;1.87;1.85;;;;;;;;;;1807054;78;26318;-52
2022/06/03 11:51:47;;;;;;;1.80;1.70;;;;;;;;;;1805975;78;26762;-50
2022/06/03 11:54:16;;;;;;;1.65;1.65;;;;;;;;;;1810474;78;26743;-47
2022/06/03 11:56:45;;;;;;;1.70;1.70;;;;;;;;;;1813140;78;26809;-49
2022/06/03 11:59:17;;;;;;;1.50;1.50;;;;;;;;;;1806209;78;26303;-47
2022/06/03 12:01:52;;;;;;;1.85;1.75;;;;;;;;;;1807117;78;26305;-52
2022/06/03 12:04:27;;;;;;;1.90;1.80;;;;;;;;;;1810206;77;26304;-51
2022/06/03 12:07:02;;;;;;;1.80;1.70;;;;;;;;;;1808734;78;26294;-49
2022/06/03 12:09:30;;;;;;;1.80;1.70;;;;;;;;;;1807624;78;26383;-48
2022/06/03 12:14:45;;;;;;;2.15;2.00;;;;;;;;;;1808789;77;26873;-51
2022/06/03 12:17:14;;;;;;;2.00;1.90;;;;;;;;;;1808956;78;26372;-53
2022/06/03 12:19:43;;;;;;;2.10;2.00;;;;;;;;;;1806595;78;26763;-48
2022/06/03 12:22:28;;;;;;;1.60;1.60;;;;;;;;;;1813426;77;26274;-49
2022/06/03 12:24:57;;;;;;;1.70;1.60;;;;;;;;;;1819415;77;26313;-50
2022/06/03 12:27:32;;;;;;;1.40;1.40;;;;;;;;;;1795384;78;26236;-51
2022/06/03 12:30:09;;;;;;;2.62;1.70;;;;;;;;;;1796989;78;26772;-49
2022/06/03 12:32:38;;;;;;;1.80;1.70;;;;;;;;;;1754603;80;26728;-49
2022/06/03 12:35:23;;;;;;;1.77;1.67;;;;;;;;;;1800281;78;26721;-51
2022/06/03 12:37:53;;;;;;;1.70;1.70;;;;;;;;;;1812034;77;26275;-48
2022/06/03 12:40:21;;;;;;;1.77;1.72;;;;;;;;;;1810963;77;26333;-48
2022/06/03 12:42:49;;;;;;;1.70;1.70;;;;;;;;;;1801928;77;26274;-47
2022/06/03 12:45:23;;;;;;;1.70;1.70;;;;;;;;;;1810035;78;26757;-51
2022/06/03 12:47:51;;;;;;;1.50;1.50;;;;;;;;;;1798139;78;26704;-51
2022/06/03 12:50:25;;;;;;;1.40;1.40;;;;;;;;;;1797800;78;26333;-49
2022/06/03 12:52:57;;;;;;;1.77;1.67;;;;;;;;;;1799784;78;26774;-48
2022/06/03 12:55:26;;;;;;;1.57;1.57;;;;;;;;;;1788850;78;26308;-47
2022/06/03 12:58:01;;;;;;;1.60;1.60;;;;;;;;;;1804561;78;26666;-48
2022/06/03 13:00:32;;;;;;;1.77;1.67;;;;;;;;;;1794556;78;26387;-48
2022/06/03 13:03:03;;;;;;;1.52;1.52;;;;;;;;;;1794831;78;26320;-50
2022/06/03 13:05:41;;;;;;;1.60;1.60;;;;;;;;;;1789875;78;26355;-48
2022/06/03 13:08:10;;;;;;;1.50;1.50;;;;;;;;;;1794475;78;26780;-47
2022/06/03 13:10:54;;;;;;;1.55;1.55;;;;;;;;;;1798734;78;26790;-49
2022/06/03 13:13:34;;;;;;;1.60;1.50;;;;;;;;;;1786047;78;26295;-46
2022/06/03 13:16:24;;;;;;;1.60;1.60;;;;;;;;;;1815907;78;26655;-47
2022/06/03 13:18:52;;;;;;;1.72;1.72;;;;;;;;;;1802757;78;26372;-51
2022/06/03 13:21:24;;;;;;;1.50;1.50;;;;;;;;;;1798059;78;26309;-51
2022/06/03 13:23:53;;;;;;;1.50;1.50;;;;;;;;;;1800746;78;26306;-48
2022/06/03 13:26:22;;;;;;;1.42;1.40;;;;;;;;;;1810170;78;26649;-54
2022/06/03 13:28:51;;;;;;;1.50;1.50;;;;;;;;;;1807610;78;26360;-49
2022/06/03 13:31:20;;;;;;;1.70;1.70;;;;;;;;;;1813707;78;26338;-53
2022/06/03 13:34:04;;;;;;;1.90;1.50;;;;;;;;;;1805373;78;26333;-51
2022/06/03 13:36:35;;;;;;;1.47;1.47;;;;;;;;;;1812985;78;27015;-50
2022/06/03 13:39:04;;;;;;;1.60;1.60;;;;;;;;;;1804112;78;26304;-47
2022/06/03 13:44:38;;;;;;;1.40;1.40;;;;;;;;;;1799459;78;26763;-54
2022/06/03 13:47:07;;;;;;;2.45;1.57;;;;;;;;;;1799599;78;27328;-52
2022/06/03 13:49:36;;;;;;;3.17;1.70;;;;;;;;;;1804458;78;26361;-55
2022/06/03 13:52:05;;;;;;;1.47;1.47;;;;;;;;;;1815774;78;26637;-55
2022/06/03 13:54:34;;;;;;;1.55;1.50;;;;;;;;;;1813870;78;26330;-52
2022/06/03 13:57:19;;;;;;;1.60;1.50;;;;;;;;;;1802743;78;26356;-53
2022/06/03 13:59:47;;;;;;;1.57;1.50;;;;;;;;;;1804315;78;26313;-51
2022/06/03 14:02:16;;;;;;;2.02;1.42;;;;;;;;;;1799548;78;26274;-50
2022/06/03 14:04:48;;;;;;;1.55;1.45;;;;;;;;;;1815482;78;26798;-52
2022/06/03 14:07:17;;;;;;;1.90;1.70;;;;;;;;;;1799945;78;26266;-51
2022/06/03 14:09:50;;;;;;;1.65;1.55;;;;;;;;;;1791684;78;26333;-49
2022/06/03 14:12:19;;;;;;;1.50;1.50;;;;;;;;;;1808079;78;26276;-47
2022/06/03 14:14:47;;;;;;;2.62;1.70;;;;;;;;;;1810560;78;25439;-49
2022/06/03 14:17:16;;;;;;;2.90;1.80;;;;;;;;;;1788928;78;28427;-52
2022/06/03 14:19:51;;;;;;;1.87;1.77;;;;;;;;;;1799099;78;26751;-52
2022/06/03 14:22:39;;;;;;;1.82;1.52;;;;;;;;;;1795191;78;26525;-52
2022/06/03 14:25:14;;;;;;;1.67;1.57;;;;;;;;;;1799680;78;26650;-50
2022/06/03 14:27:43;;;;;;;1.80;1.70;;;;;;;;;;1801045;78;28431;-52
2022/06/03 14:30:14;;;;;;;1.67;1.67;;;;;;;;;;1814519;78;26255;-55
2022/06/03 14:32:42;;;;;;;2.77;1.70;;;;;;;;;;1801055;78;26783;-53
2022/06/03 14:35:11;;;;;;;2.25;1.60;;;;;;;;;;1817526;78;26735;-52
2022/06/03 14:37:48;;;;;;;1.95;1.85;;;;;;;;;;1815167;77;26228;-52
2022/06/03 14:40:16;;;;;;;1.40;1.40;;;;;;;;;;1807846;78;25803;-54
2022/06/03 14:42:44;;;;;;;1.45;1.45;;;;;;;;;;1815590;78;26973;-54
2022/06/03 14:45:14;;;;;;;1.50;1.50;;;;;;;;;;1800723;78;26266;-49
2022/06/03 14:47:44;;;;;;;1.50;1.50;;;;;;;;;;1789694;78;26389;-48
2022/06/03 14:50:18;;;;;;;1.70;1.70;;;;;;;;;;1790245;78;26366;-50
2022/06/03 14:52:47;;;;;;;1.55;1.52;;;;;;;;;;1792335;78;26259;-54
2022/06/03 14:55:22;;;;;;;1.65;1.60;;;;;;;;;;1789565;78;26357;-56
2022/06/03 14:57:54;;;;;;;1.50;1.50;;;;;;;;;;1801022;78;26325;-51
2022/06/03 15:00:31;;;;;;;1.30;1.30;;;;;;;;;;1794192;78;25786;-56
2022/06/03 15:03:09;;;;;;;1.60;1.60;;;;;;;;;;1798529;78;26420;-51
2022/06/03 15:05:44;;;;;;;1.40;1.40;;;;;;;;;;1797082;78;26259;-50
2022/06/03 15:08:13;;;;;;;1.60;1.60;;;;;;;;;;1768151;78;27281;-54
2022/06/03 15:10:41;;;;;;;1.40;1.40;;;;;;;;;;1798982;78;26307;-49
2022/06/03 15:13:10;;;;;;;1.57;1.45;;;;;;;;;;1806261;78;26345;-48
2022/06/03 15:15:38;;;;;;;1.50;1.40;;;;;;;;;;1786879;78;26308;-47
2022/06/03 15:18:14;;;;;;;1.40;1.40;;;;;;;;;;1802843;78;26246;-51
2022/06/03 15:20:42;;;;;;;1.60;1.50;;;;;;;;;;1809790;78;26368;-49
2022/06/03 15:23:13;;;;;;;1.20;1.20;;;;;;;;;;1797736;78;26286;-50
2022/06/03 15:25:45;;;;;;;2.70;1.40;;;;;;;;;;1814233;78;25763;-48
2022/06/03 15:28:14;;;;;;;1.82;1.40;;;;;;;;;;1816459;78;26852;-50
2022/06/03 15:31:01;;;;;;;5.10;1.25;;;;;;;;;;1800910;78;26435;-51
2022/06/03 15:33:31;;;;;;;1.85;1.30;;;;;;;;;;1814913;78;26866;-51
2022/06/03 15:36:00;;;;;;;4.03;1.30;;;;;;;;;;1799434;78;26346;-49
2022/06/03 15:38:29;;;;;;;2.37;1.20;;;;;;;;;;1797323;77;26294;-52
2022/06/03 15:40:58;;;;;;;1.40;1.30;;;;;;;;;;1796290;78;26743;-49
2022/06/03 15:43:26;;;;;;;1.37;1.27;;;;;;;;;;1801728;78;27000;-50
2022/06/03 15:45:54;;;;;;;1.30;1.10;;;;;;;;;;1807315;78;26263;-51
2022/06/03 15:48:22;;;;;;;1.32;1.20;;;;;;;;;;1785389;78;27054;-51
2022/06/03 15:51:00;;;;;;;1.27;1.12;;;;;;;;;;1800029;78;26350;-51
2022/06/03 15:53:32;;;;;;;1.17;1.17;;;;;;;;;;1792063;78;26271;-53
2022/06/03 15:56:04;;;;;;;1.10;1.10;;;;;;;;;;1798093;78;26303;-50
2022/06/03 15:58:42;;;;;;;1.20;1.10;;;;;;;;;;1797710;78;26432;-49